EWG9TB LGIR-EDDK
Flight info
| Callsign | EWG9TB |
|---|---|
| Flight time | 3h 1m |
| Altitude | 36000 |
| Route | EPALO M749 DIRMI UL613 YNN UL611 TUMBO DCT OVVER DCT RODON DCT VAKSU DCT SPL DCT NAKIT DCT PEVAL DCT MOBDO DCT SOTOV DCT KPT/N0448F340 L608 KOVAN T844 UMDAS/N0411F240 T844 ASKIK T840 GULKO GULKO1B |
| Aircraft | A320/M-SDE3FGHIRWY/LB1 |
Departure
| Time | 2026-04-25 22:16 |
|---|---|
| Airport | Heraklion International Nikos Kazantzakis Airport (LGIR) |
Arrival
| Time | 2026-04-26 01:17 |
|---|---|
| Airport | Cologne Bonn Airport (EDDK) |
| Time | Latitude | Longitude | Altitude | Speed | Heading |
|---|---|---|---|---|---|
| 2026-04-25 21:31 | 35.33897 | 25.17054 | 91 ft | 0 kts | 315° |
| 2026-04-25 22:04 | 35.33897 | 25.17053 | 90 ft | 0 kts | 315° |
| 2026-04-25 22:04 | 35.33901 | 25.17053 | 90 ft | 0 kts | 341° |
| 2026-04-25 22:04 | 35.33909 | 25.17056 | 90 ft | 1 kts | 10° |
| 2026-04-25 22:05 | 35.33915 | 25.17057 | 92 ft | 2 kts | 11° |
| 2026-04-25 22:05 | 35.33928 | 25.17062 | 90 ft | 1 kts | 24° |
| 2026-04-25 22:05 | 35.33938 | 25.17082 | 91 ft | 4 kts | 69° |
| 2026-04-25 22:05 | 35.33938 | 25.17122 | 90 ft | 7 kts | 93° |
| 2026-04-25 22:06 | 35.33934 | 25.17186 | 90 ft | 7 kts | 94° |
| 2026-04-25 22:06 | 35.33928 | 25.17261 | 91 ft | 11 kts | 95° |
| 2026-04-25 22:06 | 35.33920 | 25.17376 | 91 ft | 14 kts | 95° |
| 2026-04-25 22:06 | 35.33913 | 25.17489 | 91 ft | 13 kts | 95° |
| 2026-04-25 22:07 | 35.33906 | 25.17589 | 91 ft | 11 kts | 95° |
| 2026-04-25 22:07 | 35.33902 | 25.17649 | 91 ft | 10 kts | 95° |
| 2026-04-25 22:07 | 35.33896 | 25.17744 | 93 ft | 7 kts | 94° |
| 2026-04-25 22:07 | 35.33891 | 25.17806 | 92 ft | 10 kts | 95° |
| 2026-04-25 22:08 | 35.33884 | 25.17907 | 92 ft | 12 kts | 95° |
| 2026-04-25 22:08 | 35.33878 | 25.18004 | 92 ft | 9 kts | 95° |
| 2026-04-25 22:08 | 35.33873 | 25.18076 | 92 ft | 8 kts | 95° |
| 2026-04-25 22:08 | 35.33866 | 25.18170 | 93 ft | 12 kts | 95° |
| 2026-04-25 22:09 | 35.33857 | 25.18293 | 92 ft | 17 kts | 95° |
| 2026-04-25 22:09 | 35.33847 | 25.18437 | 91 ft | 17 kts | 95° |
| 2026-04-25 22:09 | 35.33838 | 25.18572 | 92 ft | 15 kts | 95° |
| 2026-04-25 22:09 | 35.33829 | 25.18696 | 90 ft | 14 kts | 95° |
| 2026-04-25 22:10 | 35.33821 | 25.18808 | 90 ft | 13 kts | 95° |
| 2026-04-25 22:10 | 35.33816 | 25.18910 | 90 ft | 11 kts | 84° |
| 2026-04-25 22:10 | 35.33827 | 25.18942 | 93 ft | 0 kts | 61° |
| 2026-04-25 22:12 | 35.33827 | 25.18943 | 93 ft | 1 kts | 61° |
| 2026-04-25 22:13 | 35.33857 | 25.18996 | 89 ft | 6 kts | 55° |
| 2026-04-25 22:13 | 35.33884 | 25.19036 | 91 ft | 5 kts | 46° |
| 2026-04-25 22:13 | 35.33903 | 25.19026 | 89 ft | 4 kts | 302° |
| 2026-04-25 22:13 | 35.33906 | 25.19007 | 89 ft | 0 kts | 278° |
| 2026-04-25 22:14 | 35.33910 | 25.18969 | 91 ft | 16 kts | 276° |
| 2026-04-25 22:15 | 35.33942 | 25.18528 | 93 ft | 86 kts | 275° |
| 2026-04-25 22:15 | 35.34008 | 25.17563 | 93 ft | 139 kts | 275° |
| 2026-04-25 22:15 | 35.34098 | 25.16327 | 598 ft | 144 kts | 276° |
| 2026-04-25 22:16 | 35.35329 | 25.14592 | 1827 ft | 149 kts | 349° |
| 2026-04-25 22:16 | 35.36322 | 25.14236 | 2476 ft | 149 kts | 349° |
| 2026-04-25 22:16 | 35.37317 | 25.13881 | 3086 ft | 149 kts | 348° |
| 2026-04-25 22:16 | 35.38344 | 25.13513 | 3476 ft | 164 kts | 349° |
| 2026-04-25 22:17 | 35.39507 | 25.13099 | 3771 ft | 184 kts | 348° |
| 2026-04-25 22:17 | 35.40812 | 25.12621 | 4018 ft | 206 kts | 347° |
| 2026-04-25 22:17 | 35.42266 | 25.12084 | 4306 ft | 230 kts | 347° |
| 2026-04-25 22:17 | 35.43881 | 25.11487 | 4695 ft | 254 kts | 347° |
| 2026-04-25 22:18 | 35.45610 | 25.10840 | 5365 ft | 264 kts | 346° |
| 2026-04-25 22:18 | 35.47388 | 25.10170 | 6166 ft | 270 kts | 346° |
| 2026-04-25 22:18 | 35.49196 | 25.09485 | 6984 ft | 274 kts | 346° |
| 2026-04-25 22:18 | 35.51037 | 25.08788 | 7771 ft | 279 kts | 346° |
| 2026-04-25 22:19 | 35.52908 | 25.08081 | 8565 ft | 284 kts | 347° |
| 2026-04-25 22:19 | 35.54812 | 25.07360 | 9364 ft | 288 kts | 346° |
| 2026-04-25 22:19 | 35.56745 | 25.06630 | 10131 ft | 293 kts | 346° |
| 2026-04-25 22:19 | 35.58762 | 25.05875 | 10463 ft | 315 kts | 346° |
| 2026-04-25 22:20 | 35.60941 | 25.05063 | 10680 ft | 338 kts | 346° |
| 2026-04-25 22:20 | 35.63245 | 25.04200 | 11062 ft | 352 kts | 346° |
| 2026-04-25 22:20 | 35.65608 | 25.03306 | 11717 ft | 357 kts | 346° |
| 2026-04-25 22:20 | 35.67992 | 25.02393 | 12414 ft | 361 kts | 346° |
| 2026-04-25 22:21 | 35.70403 | 25.01471 | 13123 ft | 364 kts | 346° |
| 2026-04-25 22:21 | 35.72831 | 25.00508 | 13823 ft | 369 kts | 344° |
| 2026-04-25 22:21 | 35.75258 | 24.99430 | 14443 ft | 372 kts | 342° |
| 2026-04-25 22:21 | 35.77684 | 24.98275 | 15077 ft | 375 kts | 341° |
| 2026-04-25 22:22 | 35.80122 | 24.97085 | 15701 ft | 378 kts | 341° |
| 2026-04-25 22:22 | 35.82578 | 24.95883 | 16314 ft | 381 kts | 341° |
| 2026-04-25 22:22 | 35.85059 | 24.94684 | 16917 ft | 384 kts | 341° |
| 2026-04-25 22:22 | 35.87562 | 24.93489 | 17509 ft | 387 kts | 342° |
| 2026-04-25 22:23 | 35.90089 | 24.92293 | 18088 ft | 390 kts | 342° |
| 2026-04-25 22:23 | 35.92640 | 24.91094 | 18602 ft | 394 kts | 342° |
| 2026-04-25 22:23 | 35.95218 | 24.89884 | 19081 ft | 397 kts | 342° |
| 2026-04-25 22:23 | 35.97782 | 24.88678 | 19565 ft | 400 kts | 342° |
| 2026-04-25 22:24 | 36.00396 | 24.87445 | 20062 ft | 402 kts | 342° |
| 2026-04-25 22:24 | 36.03017 | 24.86205 | 20559 ft | 405 kts | 341° |
| 2026-04-25 22:24 | 36.05586 | 24.84725 | 21028 ft | 411 kts | 332° |
| 2026-04-25 22:24 | 36.07936 | 24.82688 | 21490 ft | 416 kts | 323° |
| 2026-04-25 22:25 | 36.10191 | 24.80425 | 21966 ft | 418 kts | 323° |
| 2026-04-25 22:25 | 36.12464 | 24.78160 | 22442 ft | 420 kts | 323° |
| 2026-04-25 22:25 | 36.14751 | 24.75895 | 22906 ft | 423 kts | 323° |
| 2026-04-25 22:25 | 36.17052 | 24.73616 | 23365 ft | 425 kts | 323° |
| 2026-04-25 22:26 | 36.19337 | 24.71354 | 23763 ft | 427 kts | 323° |
| 2026-04-25 22:26 | 36.21664 | 24.69047 | 24135 ft | 429 kts | 323° |
| 2026-04-25 22:26 | 36.24003 | 24.66725 | 24485 ft | 432 kts | 323° |
| 2026-04-25 22:26 | 36.26352 | 24.64388 | 24836 ft | 434 kts | 323° |
| 2026-04-25 22:27 | 36.28724 | 24.62024 | 25186 ft | 436 kts | 323° |
| 2026-04-25 22:27 | 36.31096 | 24.59660 | 25539 ft | 438 kts | 323° |
| 2026-04-25 22:27 | 36.33477 | 24.57290 | 25879 ft | 441 kts | 323° |
| 2026-04-25 22:27 | 36.35873 | 24.54901 | 26222 ft | 443 kts | 323° |
| 2026-04-25 22:28 | 36.38279 | 24.52497 | 26565 ft | 445 kts | 323° |
| 2026-04-25 22:28 | 36.40691 | 24.50080 | 26907 ft | 447 kts | 323° |
| 2026-04-25 22:28 | 36.43121 | 24.47638 | 27232 ft | 449 kts | 323° |
| 2026-04-25 22:28 | 36.45528 | 24.45216 | 27557 ft | 451 kts | 323° |
| 2026-04-25 22:29 | 36.47973 | 24.42758 | 27873 ft | 453 kts | 323° |
| 2026-04-25 22:29 | 36.50433 | 24.40289 | 28179 ft | 455 kts | 322° |
| 2026-04-25 22:29 | 36.52903 | 24.37811 | 28471 ft | 457 kts | 323° |
| 2026-04-25 22:30 | 36.57879 | 24.32813 | 29057 ft | 461 kts | 322° |
| 2026-04-25 22:30 | 36.60378 | 24.30295 | 29335 ft | 463 kts | 322° |
| 2026-04-25 22:30 | 36.62890 | 24.27764 | 29605 ft | 465 kts | 322° |
| 2026-04-25 22:30 | 36.63699 | 24.26949 | 29712 ft | 465 kts | 322° |
| 2026-04-25 22:31 | 36.67915 | 24.22705 | 30312 ft | 464 kts | 322° |
| 2026-04-25 22:31 | 36.69576 | 24.21028 | 30529 ft | 464 kts | 322° |
| 2026-04-25 22:31 | 36.72078 | 24.18496 | 30868 ft | 463 kts | 322° |
| 2026-04-25 22:31 | 36.74573 | 24.15966 | 31207 ft | 462 kts | 322° |
| 2026-04-25 22:32 | 36.77070 | 24.13432 | 31568 ft | 460 kts | 322° |
| 2026-04-25 22:32 | 36.79550 | 24.10918 | 31941 ft | 459 kts | 322° |
| 2026-04-25 22:32 | 36.82020 | 24.08413 | 32305 ft | 457 kts | 322° |
| 2026-04-25 22:32 | 36.84488 | 24.05908 | 32681 ft | 455 kts | 322° |
| 2026-04-25 22:33 | 36.86942 | 24.03412 | 33052 ft | 454 kts | 322° |
| 2026-04-25 22:33 | 36.89381 | 24.00925 | 33428 ft | 452 kts | 322° |
| 2026-04-25 22:33 | 36.91813 | 23.98445 | 33812 ft | 450 kts | 322° |
| 2026-04-25 22:33 | 36.94242 | 23.95972 | 34158 ft | 448 kts | 322° |
| 2026-04-25 22:34 | 36.96657 | 23.93515 | 34452 ft | 447 kts | 322° |
| 2026-04-25 22:34 | 36.99067 | 23.91060 | 34720 ft | 447 kts | 322° |
| 2026-04-25 22:34 | 37.01477 | 23.88604 | 34972 ft | 447 kts | 322° |
| 2026-04-25 22:34 | 37.03887 | 23.86149 | 35206 ft | 447 kts | 322° |
| 2026-04-25 22:35 | 37.06298 | 23.83691 | 35431 ft | 447 kts | 322° |
| 2026-04-25 22:35 | 37.08710 | 23.81228 | 35653 ft | 447 kts | 322° |
| 2026-04-25 22:35 | 37.11093 | 23.78788 | 35871 ft | 447 kts | 322° |
| 2026-04-25 22:35 | 37.13504 | 23.76313 | 35986 ft | 448 kts | 322° |
| 2026-04-25 22:36 | 37.18341 | 23.71339 | 36015 ft | 449 kts | 322° |
| 2026-04-25 22:36 | 37.23187 | 23.66357 | 36012 ft | 450 kts | 322° |
| 2026-04-25 22:37 | 37.28037 | 23.61362 | 36015 ft | 450 kts | 322° |
| 2026-04-25 22:37 | 37.32856 | 23.56387 | 36019 ft | 450 kts | 322° |
| 2026-04-25 22:38 | 37.37709 | 23.51375 | 36015 ft | 451 kts | 322° |
| 2026-04-25 22:38 | 37.42554 | 23.46364 | 36016 ft | 451 kts | 322° |
| 2026-04-25 22:39 | 37.47397 | 23.41344 | 36015 ft | 451 kts | 322° |
| 2026-04-25 22:39 | 37.52203 | 23.36348 | 36021 ft | 451 kts | 322° |
| 2026-04-25 22:40 | 37.57056 | 23.31300 | 36019 ft | 451 kts | 322° |
| 2026-04-25 22:40 | 37.61900 | 23.26251 | 36027 ft | 452 kts | 322° |
| 2026-04-25 22:41 | 37.66745 | 23.21197 | 36030 ft | 452 kts | 322° |
| 2026-04-25 22:41 | 37.71590 | 23.16134 | 36034 ft | 452 kts | 322° |
| 2026-04-25 22:42 | 37.76440 | 23.11054 | 36042 ft | 452 kts | 322° |
| 2026-04-25 22:42 | 37.81265 | 23.05988 | 36045 ft | 452 kts | 322° |
| 2026-04-25 22:43 | 37.86105 | 23.00896 | 36043 ft | 452 kts | 322° |
| 2026-04-25 22:43 | 37.90950 | 22.95798 | 36045 ft | 452 kts | 322° |
| 2026-04-25 22:44 | 37.95731 | 22.90668 | 36046 ft | 453 kts | 320° |
| 2026-04-25 22:44 | 38.00391 | 22.85241 | 36043 ft | 454 kts | 319° |
| 2026-04-25 22:45 | 38.04968 | 22.79777 | 36043 ft | 454 kts | 319° |
| 2026-04-25 22:45 | 38.09611 | 22.74311 | 36041 ft | 454 kts | 320° |
| 2026-04-25 22:46 | 38.14262 | 22.68891 | 36039 ft | 454 kts | 320° |
| 2026-04-25 22:46 | 38.18921 | 22.63478 | 36043 ft | 454 kts | 320° |
| 2026-04-25 22:47 | 38.23585 | 22.58056 | 36045 ft | 454 kts | 320° |
| 2026-04-25 22:47 | 38.28243 | 22.52621 | 36047 ft | 454 kts | 320° |
| 2026-04-25 22:48 | 38.32897 | 22.47180 | 36046 ft | 454 kts | 320° |
| 2026-04-25 22:48 | 38.37550 | 22.41730 | 36051 ft | 455 kts | 320° |
| 2026-04-25 22:49 | 38.42218 | 22.36257 | 36054 ft | 455 kts | 320° |
| 2026-04-25 22:49 | 38.46844 | 22.30819 | 36060 ft | 455 kts | 320° |
| 2026-04-25 22:50 | 38.51495 | 22.25336 | 36056 ft | 455 kts | 320° |
| 2026-04-25 22:50 | 38.56143 | 22.19850 | 36064 ft | 455 kts | 320° |
| 2026-04-25 22:51 | 38.60792 | 22.14362 | 36062 ft | 455 kts | 320° |
| 2026-04-25 22:51 | 38.65438 | 22.08862 | 36072 ft | 455 kts | 320° |
| 2026-04-25 22:52 | 38.70087 | 22.03346 | 36078 ft | 456 kts | 320° |
| 2026-04-25 22:52 | 38.73948 | 21.98742 | 36086 ft | 456 kts | 320° |
| 2026-04-25 22:53 | 38.79372 | 21.92266 | 36090 ft | 456 kts | 320° |
| 2026-04-25 22:53 | 38.84015 | 21.86728 | 36090 ft | 456 kts | 320° |
| 2026-04-25 22:54 | 38.88627 | 21.81230 | 36086 ft | 456 kts | 320° |
| 2026-04-25 22:54 | 38.93263 | 21.75671 | 36090 ft | 456 kts | 320° |
| 2026-04-25 22:55 | 38.97905 | 21.70106 | 36080 ft | 456 kts | 320° |
| 2026-04-25 22:55 | 39.02542 | 21.64538 | 36077 ft | 456 kts | 320° |
| 2026-04-25 22:56 | 39.07163 | 21.58962 | 36076 ft | 456 kts | 320° |
| 2026-04-25 22:56 | 39.11786 | 21.53364 | 36069 ft | 455 kts | 320° |
| 2026-04-25 22:57 | 39.16399 | 21.47771 | 36065 ft | 456 kts | 320° |
| 2026-04-25 22:57 | 39.21015 | 21.42172 | 36071 ft | 456 kts | 320° |
| 2026-04-25 22:58 | 39.25640 | 21.36562 | 36064 ft | 456 kts | 320° |
| 2026-04-25 22:58 | 39.30230 | 21.30988 | 36066 ft | 456 kts | 320° |
| 2026-04-25 22:59 | 39.34844 | 21.25359 | 36068 ft | 457 kts | 320° |
| 2026-04-25 22:59 | 39.39461 | 21.19704 | 36067 ft | 457 kts | 320° |
| 2026-04-25 23:00 | 39.44078 | 21.14045 | 36063 ft | 457 kts | 320° |
| 2026-04-25 23:00 | 39.48699 | 21.08390 | 36065 ft | 457 kts | 320° |
| 2026-04-25 23:01 | 39.53319 | 21.02733 | 36071 ft | 458 kts | 320° |
| 2026-04-25 23:01 | 39.57937 | 20.97054 | 36071 ft | 458 kts | 320° |
| 2026-04-25 23:02 | 39.62547 | 20.91361 | 36080 ft | 458 kts | 320° |
| 2026-04-25 23:02 | 39.67162 | 20.85647 | 36084 ft | 458 kts | 320° |
| 2026-04-25 23:03 | 39.72004 | 20.80249 | 36091 ft | 453 kts | 328° |
| 2026-04-25 23:03 | 39.77081 | 20.75478 | 36086 ft | 453 kts | 328° |
| 2026-04-25 23:04 | 39.81346 | 20.71431 | 36075 ft | 453 kts | 328° |
| 2026-04-25 23:04 | 39.87257 | 20.65807 | 36067 ft | 453 kts | 328° |
| 2026-04-25 23:05 | 39.92344 | 20.60971 | 36063 ft | 452 kts | 328° |
| 2026-04-25 23:05 | 39.97427 | 20.56141 | 36054 ft | 452 kts | 328° |
| 2026-04-25 23:06 | 40.02503 | 20.51305 | 36049 ft | 452 kts | 327° |
| 2026-04-25 23:06 | 40.07572 | 20.46464 | 36055 ft | 452 kts | 327° |
| 2026-04-25 23:07 | 40.12640 | 20.41604 | 36043 ft | 452 kts | 327° |
| 2026-04-25 23:07 | 40.17698 | 20.36721 | 36063 ft | 452 kts | 327° |
| 2026-04-25 23:08 | 40.22747 | 20.31824 | 36055 ft | 452 kts | 327° |
| 2026-04-25 23:08 | 40.27794 | 20.26935 | 36055 ft | 451 kts | 327° |
| 2026-04-25 23:09 | 40.32839 | 20.22057 | 36051 ft | 451 kts | 327° |
| 2026-04-25 23:09 | 40.37886 | 20.17177 | 36055 ft | 450 kts | 327° |
| 2026-04-25 23:10 | 40.42924 | 20.12291 | 36056 ft | 450 kts | 327° |
| 2026-04-25 23:10 | 40.47957 | 20.07387 | 36060 ft | 450 kts | 327° |
| 2026-04-25 23:11 | 40.52972 | 20.02477 | 36055 ft | 449 kts | 327° |
| 2026-04-25 23:11 | 40.57986 | 19.97560 | 36056 ft | 449 kts | 327° |
| 2026-04-25 23:12 | 40.62999 | 19.92647 | 36057 ft | 449 kts | 327° |
| 2026-04-25 23:12 | 40.67157 | 19.88559 | 36058 ft | 449 kts | 327° |
| 2026-04-25 23:13 | 40.72150 | 19.83627 | 36054 ft | 448 kts | 326° |
| 2026-04-25 23:13 | 40.77130 | 19.78699 | 36052 ft | 448 kts | 326° |
| 2026-04-25 23:14 | 40.82113 | 19.73775 | 36052 ft | 447 kts | 326° |
| 2026-04-25 23:14 | 40.87096 | 19.68853 | 36052 ft | 447 kts | 326° |
| 2026-04-25 23:15 | 40.92074 | 19.63923 | 36054 ft | 447 kts | 326° |
| 2026-04-25 23:15 | 40.97045 | 19.58980 | 36056 ft | 447 kts | 326° |
| 2026-04-25 23:16 | 41.02042 | 19.53999 | 36056 ft | 446 kts | 326° |
| 2026-04-25 23:16 | 41.06992 | 19.49057 | 36055 ft | 445 kts | 326° |
| 2026-04-25 23:17 | 41.11940 | 19.44115 | 36057 ft | 445 kts | 326° |
| 2026-04-25 23:17 | 41.16881 | 19.39180 | 36058 ft | 444 kts | 326° |
| 2026-04-25 23:18 | 41.21811 | 19.34238 | 36058 ft | 444 kts | 326° |
| 2026-04-25 23:18 | 41.26736 | 19.29286 | 36056 ft | 443 kts | 325° |
| 2026-04-25 23:19 | 41.31653 | 19.24341 | 36053 ft | 443 kts | 325° |
| 2026-04-25 23:19 | 41.36561 | 19.19387 | 36055 ft | 443 kts | 325° |
| 2026-04-25 23:20 | 41.41459 | 19.14426 | 36055 ft | 442 kts | 325° |
| 2026-04-25 23:20 | 41.46357 | 19.09469 | 36054 ft | 442 kts | 325° |
| 2026-04-25 23:21 | 41.51238 | 19.04500 | 36059 ft | 441 kts | 324° |
| 2026-04-25 23:21 | 41.56102 | 18.99509 | 36052 ft | 441 kts | 324° |
| 2026-04-25 23:22 | 41.60965 | 18.94523 | 36052 ft | 440 kts | 324° |
| 2026-04-25 23:23 | 41.68249 | 18.87033 | 36054 ft | 440 kts | 324° |
| 2026-04-25 23:23 | 41.73101 | 18.82045 | 36048 ft | 440 kts | 324° |
| 2026-04-25 23:24 | 41.77957 | 18.77051 | 36050 ft | 440 kts | 324° |
| 2026-04-25 23:24 | 41.82802 | 18.72053 | 36060 ft | 440 kts | 324° |
| 2026-04-25 23:25 | 41.87642 | 18.67043 | 36058 ft | 440 kts | 324° |
| 2026-04-25 23:25 | 41.92474 | 18.62018 | 36053 ft | 439 kts | 324° |
| 2026-04-25 23:26 | 41.97308 | 18.56994 | 36058 ft | 439 kts | 323° |
| 2026-04-25 23:26 | 42.02035 | 18.51800 | 36046 ft | 440 kts | 316° |
| 2026-04-25 23:27 | 42.06205 | 18.45767 | 36047 ft | 440 kts | 314° |
| 2026-04-25 23:27 | 42.10368 | 18.39733 | 36041 ft | 440 kts | 314° |
| 2026-04-25 23:28 | 42.14534 | 18.33699 | 36036 ft | 440 kts | 314° |
| 2026-04-25 23:28 | 42.18695 | 18.27661 | 36038 ft | 439 kts | 314° |
| 2026-04-25 23:29 | 42.22845 | 18.21609 | 36030 ft | 439 kts | 314° |
| 2026-04-25 23:29 | 42.26997 | 18.15539 | 36031 ft | 439 kts | 314° |
| 2026-04-25 23:30 | 42.31146 | 18.09473 | 36031 ft | 439 kts | 314° |
| 2026-04-25 23:30 | 42.35289 | 18.03400 | 36034 ft | 440 kts | 314° |
| 2026-04-25 23:31 | 42.39431 | 17.97313 | 36038 ft | 440 kts | 314° |
| 2026-04-25 23:31 | 42.43566 | 17.91223 | 36042 ft | 439 kts | 313° |
| 2026-04-25 23:32 | 42.47702 | 17.85124 | 36044 ft | 439 kts | 313° |
| 2026-04-25 23:32 | 42.51836 | 17.79020 | 36038 ft | 439 kts | 313° |
| 2026-04-25 23:33 | 42.55959 | 17.72911 | 36053 ft | 439 kts | 313° |
| 2026-04-25 23:33 | 42.60072 | 17.66794 | 36055 ft | 439 kts | 313° |
| 2026-04-25 23:34 | 42.64184 | 17.60676 | 36059 ft | 439 kts | 313° |
| 2026-04-25 23:34 | 42.68294 | 17.54545 | 36063 ft | 439 kts | 313° |
| 2026-04-25 23:35 | 42.72400 | 17.48408 | 36056 ft | 438 kts | 313° |
| 2026-04-25 23:35 | 42.76500 | 17.42269 | 36060 ft | 438 kts | 313° |
| 2026-04-25 23:36 | 42.80592 | 17.36125 | 36065 ft | 438 kts | 313° |
| 2026-04-25 23:36 | 42.84675 | 17.29985 | 36061 ft | 437 kts | 313° |
| 2026-04-25 23:37 | 42.88753 | 17.23844 | 36064 ft | 437 kts | 312° |
| 2026-04-25 23:37 | 42.92826 | 17.17698 | 36066 ft | 436 kts | 312° |
| 2026-04-25 23:38 | 42.96890 | 17.11549 | 36056 ft | 436 kts | 312° |
| 2026-04-25 23:38 | 43.00942 | 17.05398 | 36056 ft | 436 kts | 312° |
| 2026-04-25 23:39 | 43.04996 | 16.99250 | 36059 ft | 436 kts | 312° |
| 2026-04-25 23:39 | 43.09055 | 16.93088 | 36055 ft | 436 kts | 312° |
| 2026-04-25 23:40 | 43.13068 | 16.86950 | 36059 ft | 436 kts | 312° |
| 2026-04-25 23:40 | 43.17130 | 16.80721 | 36058 ft | 436 kts | 311° |
| 2026-04-25 23:41 | 43.21165 | 16.74526 | 36059 ft | 436 kts | 311° |
| 2026-04-25 23:41 | 43.25178 | 16.68373 | 36058 ft | 435 kts | 311° |
| 2026-04-25 23:42 | 43.29209 | 16.62176 | 36066 ft | 435 kts | 311° |
| 2026-04-25 23:42 | 43.33232 | 16.55968 | 36069 ft | 435 kts | 311° |
| 2026-04-25 23:43 | 43.37249 | 16.49760 | 36076 ft | 434 kts | 311° |
| 2026-04-25 23:43 | 43.41254 | 16.43540 | 36071 ft | 434 kts | 311° |
| 2026-04-25 23:44 | 43.45253 | 16.37327 | 36062 ft | 433 kts | 311° |
| 2026-04-25 23:44 | 43.49252 | 16.31116 | 36066 ft | 433 kts | 311° |
| 2026-04-25 23:45 | 43.53213 | 16.24871 | 36070 ft | 432 kts | 310° |
| 2026-04-25 23:45 | 43.57092 | 16.18559 | 36066 ft | 431 kts | 309° |
| 2026-04-25 23:46 | 43.60964 | 16.12239 | 36075 ft | 431 kts | 310° |
| 2026-04-25 23:46 | 43.64844 | 16.05946 | 36069 ft | 430 kts | 310° |
| 2026-04-25 23:47 | 43.68719 | 15.99662 | 36069 ft | 429 kts | 309° |
| 2026-04-25 23:47 | 43.72586 | 15.93379 | 36075 ft | 429 kts | 309° |
| 2026-04-25 23:48 | 43.76440 | 15.87096 | 36067 ft | 428 kts | 309° |
| 2026-04-25 23:48 | 43.80288 | 15.80803 | 36074 ft | 428 kts | 309° |
| 2026-04-25 23:49 | 43.84133 | 15.74510 | 36073 ft | 427 kts | 309° |
| 2026-04-25 23:49 | 43.87975 | 15.68219 | 36078 ft | 427 kts | 309° |
| 2026-04-25 23:50 | 43.91801 | 15.61927 | 36076 ft | 427 kts | 309° |
| 2026-04-25 23:50 | 43.95614 | 15.55633 | 36097 ft | 424 kts | 308° |
| 2026-04-25 23:51 | 43.98756 | 15.50433 | 36092 ft | 422 kts | 308° |
| 2026-04-25 23:51 | 44.02527 | 15.44191 | 36087 ft | 421 kts | 308° |
| 2026-04-25 23:52 | 44.06280 | 15.37970 | 36086 ft | 419 kts | 307° |
| 2026-04-25 23:52 | 44.10017 | 15.31755 | 36089 ft | 419 kts | 307° |
| 2026-04-25 23:53 | 44.13755 | 15.25544 | 36081 ft | 418 kts | 307° |
| 2026-04-25 23:53 | 44.17456 | 15.19364 | 36073 ft | 417 kts | 307° |
| 2026-04-25 23:54 | 44.21170 | 15.13146 | 36079 ft | 417 kts | 307° |
| 2026-04-25 23:54 | 44.24879 | 15.06925 | 36076 ft | 417 kts | 307° |
| 2026-04-25 23:55 | 44.28587 | 15.00707 | 36075 ft | 416 kts | 307° |
| 2026-04-25 23:55 | 44.32285 | 14.94485 | 36076 ft | 416 kts | 307° |
| 2026-04-25 23:56 | 44.35974 | 14.88253 | 36072 ft | 416 kts | 307° |
| 2026-04-25 23:56 | 44.39667 | 14.82012 | 36068 ft | 417 kts | 307° |
| 2026-04-25 23:57 | 44.43353 | 14.75755 | 36068 ft | 417 kts | 307° |
| 2026-04-25 23:57 | 44.47039 | 14.69495 | 36062 ft | 417 kts | 307° |
| 2026-04-25 23:58 | 44.50727 | 14.63224 | 36063 ft | 417 kts | 307° |
| 2026-04-25 23:58 | 44.54411 | 14.56940 | 36065 ft | 417 kts | 307° |
| 2026-04-25 23:59 | 44.58097 | 14.50645 | 36059 ft | 417 kts | 307° |
| 2026-04-25 23:59 | 44.61776 | 14.44340 | 36058 ft | 417 kts | 307° |
| 2026-04-26 00:00 | 44.65448 | 14.38027 | 36059 ft | 418 kts | 307° |
| 2026-04-26 00:00 | 44.69124 | 14.31693 | 36056 ft | 418 kts | 307° |
| 2026-04-26 00:01 | 44.72794 | 14.25362 | 36053 ft | 418 kts | 307° |
| 2026-04-26 00:01 | 44.76464 | 14.19016 | 36058 ft | 418 kts | 307° |
| 2026-04-26 00:02 | 44.80130 | 14.12664 | 36060 ft | 418 kts | 308° |
| 2026-04-26 00:02 | 44.83771 | 14.06341 | 36060 ft | 418 kts | 308° |
| 2026-04-26 00:03 | 44.87433 | 13.99960 | 36062 ft | 419 kts | 308° |
| 2026-04-26 00:03 | 44.91102 | 13.93574 | 36066 ft | 419 kts | 308° |
| 2026-04-26 00:04 | 44.94773 | 13.87194 | 36067 ft | 419 kts | 308° |
| 2026-04-26 00:04 | 44.98432 | 13.80790 | 36062 ft | 419 kts | 308° |
| 2026-04-26 00:05 | 45.02094 | 13.74375 | 36066 ft | 419 kts | 308° |
| 2026-04-26 00:05 | 45.05738 | 13.67953 | 36071 ft | 419 kts | 308° |
| 2026-04-26 00:06 | 45.09386 | 13.61510 | 36070 ft | 419 kts | 308° |
| 2026-04-26 00:06 | 45.13029 | 13.55074 | 36067 ft | 419 kts | 308° |
| 2026-04-26 00:07 | 45.16672 | 13.48622 | 36065 ft | 419 kts | 308° |
| 2026-04-26 00:07 | 45.20337 | 13.42188 | 36063 ft | 420 kts | 309° |
| 2026-04-26 00:08 | 45.24163 | 13.35934 | 36064 ft | 420 kts | 311° |
| 2026-04-26 00:08 | 45.28051 | 13.29743 | 36061 ft | 420 kts | 310° |
| 2026-04-26 00:09 | 45.32010 | 13.23660 | 36059 ft | 420 kts | 317° |
| 2026-04-26 00:09 | 45.36396 | 13.18162 | 36055 ft | 421 kts | 317° |
| 2026-04-26 00:10 | 45.40780 | 13.12640 | 36058 ft | 421 kts | 317° |
| 2026-04-26 00:10 | 45.45156 | 13.07107 | 36056 ft | 421 kts | 317° |
| 2026-04-26 00:11 | 45.49538 | 13.01563 | 36054 ft | 421 kts | 317° |
| 2026-04-26 00:11 | 45.53921 | 12.96014 | 36052 ft | 421 kts | 317° |
| 2026-04-26 00:12 | 45.58296 | 12.90458 | 36051 ft | 421 kts | 317° |
| 2026-04-26 00:12 | 45.62664 | 12.84891 | 36052 ft | 421 kts | 317° |
| 2026-04-26 00:13 | 45.67007 | 12.79346 | 36046 ft | 421 kts | 317° |
| 2026-04-26 00:13 | 45.71383 | 12.73764 | 36047 ft | 421 kts | 317° |
| 2026-04-26 00:14 | 45.75751 | 12.68158 | 36050 ft | 421 kts | 317° |
| 2026-04-26 00:14 | 45.80115 | 12.62565 | 36051 ft | 421 kts | 317° |
| 2026-04-26 00:15 | 45.84502 | 12.56955 | 36049 ft | 422 kts | 317° |
| 2026-04-26 00:15 | 45.88869 | 12.51329 | 36053 ft | 422 kts | 317° |
| 2026-04-26 00:16 | 45.93229 | 12.45696 | 36057 ft | 422 kts | 317° |
| 2026-04-26 00:16 | 45.97591 | 12.40044 | 36064 ft | 422 kts | 317° |
| 2026-04-26 00:17 | 46.01947 | 12.34373 | 36072 ft | 422 kts | 317° |
| 2026-04-26 00:17 | 46.06298 | 12.28710 | 36058 ft | 421 kts | 317° |
| 2026-04-26 00:18 | 46.10638 | 12.23035 | 36075 ft | 422 kts | 317° |
| 2026-04-26 00:18 | 46.14980 | 12.17354 | 36067 ft | 421 kts | 317° |
| 2026-04-26 00:19 | 46.19325 | 12.11662 | 36081 ft | 422 kts | 317° |
| 2026-04-26 00:19 | 46.23665 | 12.05969 | 36078 ft | 421 kts | 317° |
| 2026-04-26 00:20 | 46.27972 | 12.00304 | 36080 ft | 421 kts | 317° |
| 2026-04-26 00:20 | 46.32330 | 11.94564 | 36089 ft | 421 kts | 317° |
| 2026-04-26 00:21 | 46.36662 | 11.88848 | 36094 ft | 421 kts | 317° |
| 2026-04-26 00:21 | 46.40976 | 11.83120 | 36097 ft | 421 kts | 317° |
| 2026-04-26 00:22 | 46.45359 | 11.77570 | 36103 ft | 421 kts | 321° |
| 2026-04-26 00:22 | 46.50005 | 11.72320 | 36107 ft | 421 kts | 322° |
| 2026-04-26 00:23 | 46.54655 | 11.67154 | 36120 ft | 421 kts | 322° |
| 2026-04-26 00:23 | 46.59261 | 11.61907 | 36119 ft | 420 kts | 321° |
| 2026-04-26 00:24 | 46.63800 | 11.56648 | 36126 ft | 420 kts | 321° |
| 2026-04-26 00:24 | 46.68368 | 11.51351 | 36134 ft | 419 kts | 321° |
| 2026-04-26 00:25 | 46.72964 | 11.46029 | 36146 ft | 419 kts | 321° |
| 2026-04-26 00:25 | 46.77527 | 11.40735 | 36143 ft | 419 kts | 321° |
| 2026-04-26 00:26 | 46.82042 | 11.35470 | 36147 ft | 419 kts | 321° |
| 2026-04-26 00:26 | 46.86594 | 11.30163 | 36149 ft | 419 kts | 321° |
| 2026-04-26 00:27 | 46.91145 | 11.24846 | 36155 ft | 418 kts | 321° |
| 2026-04-26 00:27 | 46.95704 | 11.19544 | 36160 ft | 419 kts | 322° |
| 2026-04-26 00:28 | 47.00412 | 11.14513 | 36169 ft | 419 kts | 324° |
| 2026-04-26 00:28 | 47.05183 | 11.09610 | 36173 ft | 419 kts | 324° |
| 2026-04-26 00:29 | 47.09905 | 11.04702 | 36175 ft | 418 kts | 324° |
| 2026-04-26 00:29 | 47.14650 | 10.99677 | 36179 ft | 418 kts | 324° |
| 2026-04-26 00:30 | 47.19345 | 10.94641 | 36181 ft | 418 kts | 323° |
| 2026-04-26 00:30 | 47.23273 | 10.90429 | 36172 ft | 418 kts | 323° |
| 2026-04-26 00:31 | 47.27972 | 10.85403 | 36171 ft | 417 kts | 323° |
| 2026-04-26 00:31 | 47.32671 | 10.80368 | 36166 ft | 418 kts | 323° |
| 2026-04-26 00:32 | 47.37373 | 10.75326 | 36160 ft | 418 kts | 323° |
| 2026-04-26 00:32 | 47.44419 | 10.67749 | 36164 ft | 418 kts | 323° |
| 2026-04-26 00:33 | 47.49109 | 10.62682 | 36163 ft | 418 kts | 323° |
| 2026-04-26 00:33 | 47.53794 | 10.57601 | 36169 ft | 418 kts | 323° |
| 2026-04-26 00:34 | 47.58483 | 10.52507 | 36167 ft | 418 kts | 323° |
| 2026-04-26 00:34 | 47.63175 | 10.47411 | 36173 ft | 418 kts | 323° |
| 2026-04-26 00:35 | 47.67862 | 10.42303 | 36172 ft | 418 kts | 323° |
| 2026-04-26 00:35 | 47.72558 | 10.37190 | 36173 ft | 419 kts | 323° |
| 2026-04-26 00:36 | 47.75599 | 10.33851 | 36178 ft | 419 kts | 322° |
| 2026-04-26 00:36 | 47.80149 | 10.28432 | 36184 ft | 419 kts | 320° |
| 2026-04-26 00:37 | 47.84622 | 10.22866 | 36191 ft | 419 kts | 319° |
| 2026-04-26 00:37 | 47.89103 | 10.17308 | 36193 ft | 419 kts | 320° |
| 2026-04-26 00:38 | 47.93602 | 10.11779 | 36196 ft | 419 kts | 320° |
| 2026-04-26 00:38 | 47.98082 | 10.06299 | 36194 ft | 419 kts | 320° |
| 2026-04-26 00:39 | 48.02595 | 10.00772 | 36190 ft | 419 kts | 320° |
| 2026-04-26 00:39 | 48.07092 | 9.95223 | 36194 ft | 419 kts | 320° |
| 2026-04-26 00:40 | 48.11594 | 9.89651 | 36195 ft | 420 kts | 320° |
| 2026-04-26 00:40 | 48.16094 | 9.84082 | 36193 ft | 420 kts | 320° |
| 2026-04-26 00:41 | 48.20595 | 9.78502 | 36191 ft | 420 kts | 320° |
| 2026-04-26 00:41 | 48.25085 | 9.72902 | 36191 ft | 420 kts | 319° |
| 2026-04-26 00:42 | 48.29580 | 9.67283 | 36183 ft | 420 kts | 319° |
| 2026-04-26 00:42 | 48.34067 | 9.61663 | 36182 ft | 420 kts | 319° |
| 2026-04-26 00:43 | 48.38538 | 9.55987 | 36179 ft | 421 kts | 319° |
| 2026-04-26 00:43 | 48.42975 | 9.50294 | 36175 ft | 421 kts | 319° |
| 2026-04-26 00:44 | 48.47436 | 9.44555 | 36180 ft | 422 kts | 319° |
| 2026-04-26 00:44 | 48.51892 | 9.38808 | 36178 ft | 422 kts | 319° |
| 2026-04-26 00:45 | 48.56359 | 9.33050 | 36185 ft | 422 kts | 319° |
| 2026-04-26 00:45 | 48.60851 | 9.27341 | 36186 ft | 423 kts | 323° |
| 2026-04-26 00:46 | 48.66054 | 9.23150 | 36191 ft | 425 kts | 335° |
| 2026-04-26 00:46 | 48.71448 | 9.19611 | 36192 ft | 425 kts | 334° |
| 2026-04-26 00:47 | 48.76870 | 9.16017 | 36196 ft | 426 kts | 334° |
| 2026-04-26 00:47 | 48.82300 | 9.12405 | 36197 ft | 426 kts | 334° |
| 2026-04-26 00:48 | 48.87733 | 9.08809 | 36198 ft | 426 kts | 336° |
| 2026-04-26 00:48 | 48.93344 | 9.05886 | 36198 ft | 427 kts | 340° |
| 2026-04-26 00:49 | 48.98987 | 9.03042 | 36199 ft | 427 kts | 340° |
| 2026-04-26 00:49 | 49.04628 | 9.00196 | 36198 ft | 427 kts | 340° |
| 2026-04-26 00:50 | 49.10271 | 8.97354 | 36199 ft | 427 kts | 340° |
| 2026-04-26 00:50 | 49.15872 | 8.94526 | 36200 ft | 427 kts | 340° |
| 2026-04-26 00:51 | 49.21519 | 8.91662 | 36204 ft | 427 kts | 340° |
| 2026-04-26 00:51 | 49.27164 | 8.88782 | 36215 ft | 427 kts | 340° |
| 2026-04-26 00:52 | 49.32812 | 8.85902 | 36216 ft | 427 kts | 340° |
| 2026-04-26 00:52 | 49.38454 | 8.83026 | 36214 ft | 427 kts | 340° |
| 2026-04-26 00:53 | 49.44129 | 8.80302 | 36214 ft | 428 kts | 342° |
| 2026-04-26 00:53 | 49.49866 | 8.77862 | 36209 ft | 428 kts | 343° |
| 2026-04-26 00:54 | 49.55612 | 8.75440 | 36214 ft | 428 kts | 342° |
| 2026-04-26 00:54 | 49.61316 | 8.72948 | 36209 ft | 428 kts | 342° |
| 2026-04-26 00:55 | 49.67037 | 8.70399 | 35765 ft | 427 kts | 342° |
| 2026-04-26 00:55 | 49.69890 | 8.69134 | 35038 ft | 427 kts | 342° |
| 2026-04-26 00:55 | 49.72750 | 8.67865 | 34323 ft | 428 kts | 342° |
| 2026-04-26 00:56 | 49.75620 | 8.66596 | 33515 ft | 428 kts | 342° |
| 2026-04-26 00:56 | 49.78493 | 8.65329 | 32661 ft | 430 kts | 342° |
| 2026-04-26 00:56 | 49.81371 | 8.64056 | 31796 ft | 431 kts | 342° |
| 2026-04-26 00:56 | 49.84264 | 8.62774 | 30919 ft | 433 kts | 342° |
| 2026-04-26 00:57 | 49.87171 | 8.61476 | 29996 ft | 435 kts | 342° |
| 2026-04-26 00:57 | 49.90061 | 8.60185 | 29284 ft | 431 kts | 342° |
| 2026-04-26 00:57 | 49.92920 | 8.58911 | 28579 ft | 425 kts | 342° |
| 2026-04-26 00:57 | 49.95758 | 8.57643 | 27881 ft | 421 kts | 342° |
| 2026-04-26 00:58 | 49.98559 | 8.56389 | 27222 ft | 417 kts | 342° |
| 2026-04-26 00:58 | 50.01329 | 8.55146 | 26612 ft | 413 kts | 342° |
| 2026-04-26 00:58 | 50.04081 | 8.53913 | 25984 ft | 409 kts | 342° |
| 2026-04-26 00:58 | 50.06762 | 8.52679 | 25361 ft | 405 kts | 341° |
| 2026-04-26 00:59 | 50.09428 | 8.51325 | 24752 ft | 401 kts | 340° |
| 2026-04-26 00:59 | 50.12050 | 8.49901 | 24153 ft | 397 kts | 339° |
| 2026-04-26 00:59 | 50.14642 | 8.48453 | 23512 ft | 394 kts | 339° |
| 2026-04-26 00:59 | 50.17216 | 8.47014 | 22842 ft | 391 kts | 339° |
| 2026-04-26 01:00 | 50.19772 | 8.45597 | 22209 ft | 387 kts | 340° |
| 2026-04-26 01:00 | 50.22306 | 8.44208 | 21579 ft | 384 kts | 340° |
| 2026-04-26 01:00 | 50.24816 | 8.42837 | 20994 ft | 381 kts | 340° |
| 2026-04-26 01:00 | 50.27319 | 8.41477 | 20428 ft | 378 kts | 340° |
| 2026-04-26 01:01 | 50.29723 | 8.39840 | 19872 ft | 375 kts | 330° |
| 2026-04-26 01:01 | 50.31933 | 8.37695 | 19613 ft | 374 kts | 327° |
| 2026-04-26 01:01 | 50.34128 | 8.35503 | 19375 ft | 374 kts | 327° |
| 2026-04-26 01:01 | 50.36323 | 8.33314 | 19134 ft | 373 kts | 327° |
| 2026-04-26 01:02 | 50.38511 | 8.31137 | 18895 ft | 372 kts | 327° |
| 2026-04-26 01:02 | 50.40694 | 8.28963 | 18675 ft | 371 kts | 327° |
| 2026-04-26 01:02 | 50.42822 | 8.26844 | 18255 ft | 365 kts | 327° |
| 2026-04-26 01:02 | 50.44950 | 8.24716 | 17740 ft | 361 kts | 327° |
| 2026-04-26 01:03 | 50.47056 | 8.22610 | 17233 ft | 357 kts | 327° |
| 2026-04-26 01:03 | 50.49144 | 8.20516 | 16716 ft | 354 kts | 327° |
| 2026-04-26 01:03 | 50.51220 | 8.18431 | 16199 ft | 352 kts | 327° |
| 2026-04-26 01:03 | 50.53280 | 8.16363 | 15677 ft | 350 kts | 327° |
| 2026-04-26 01:04 | 50.55327 | 8.14305 | 15161 ft | 348 kts | 327° |
| 2026-04-26 01:04 | 50.57365 | 8.12251 | 14636 ft | 347 kts | 327° |
| 2026-04-26 01:04 | 50.59392 | 8.10206 | 14113 ft | 346 kts | 327° |
| 2026-04-26 01:04 | 50.61415 | 8.08165 | 13524 ft | 344 kts | 327° |
| 2026-04-26 01:05 | 50.63425 | 8.06133 | 12969 ft | 342 kts | 327° |
| 2026-04-26 01:05 | 50.65418 | 8.04112 | 12415 ft | 339 kts | 327° |
| 2026-04-26 01:05 | 50.67368 | 8.02128 | 11862 ft | 337 kts | 326° |
| 2026-04-26 01:05 | 50.69356 | 8.00102 | 11282 ft | 335 kts | 326° |
| 2026-04-26 01:06 | 50.71310 | 7.98115 | 10788 ft | 331 kts | 326° |
| 2026-04-26 01:06 | 50.73064 | 7.95982 | 10678 ft | 315 kts | 313° |
| 2026-04-26 01:06 | 50.74282 | 7.93209 | 10554 ft | 303 kts | 296° |
| 2026-04-26 01:06 | 50.74870 | 7.90088 | 10431 ft | 293 kts | 279° |
| 2026-04-26 01:07 | 50.74841 | 7.86920 | 10296 ft | 286 kts | 264° |
| 2026-04-26 01:07 | 50.74563 | 7.83847 | 10077 ft | 280 kts | 264° |
| 2026-04-26 01:07 | 50.74290 | 7.80809 | 9850 ft | 280 kts | 264° |
| 2026-04-26 01:07 | 50.74015 | 7.77737 | 9395 ft | 282 kts | 264° |
| 2026-04-26 01:08 | 50.73739 | 7.74691 | 9037 ft | 279 kts | 264° |
| 2026-04-26 01:08 | 50.73463 | 7.71667 | 8621 ft | 278 kts | 264° |
| 2026-04-26 01:08 | 50.73190 | 7.68653 | 8214 ft | 277 kts | 264° |
| 2026-04-26 01:08 | 50.72921 | 7.65694 | 7821 ft | 275 kts | 264° |
| 2026-04-26 01:09 | 50.72650 | 7.62707 | 7423 ft | 274 kts | 265° |
| 2026-04-26 01:09 | 50.72381 | 7.59729 | 7018 ft | 273 kts | 265° |
| 2026-04-26 01:09 | 50.72112 | 7.56746 | 6489 ft | 276 kts | 265° |
| 2026-04-26 01:09 | 50.71838 | 7.53733 | 5840 ft | 274 kts | 265° |
| 2026-04-26 01:10 | 50.71576 | 7.50903 | 5706 ft | 249 kts | 265° |
| 2026-04-26 01:10 | 50.71332 | 7.48319 | 5582 ft | 228 kts | 265° |
| 2026-04-26 01:10 | 50.71106 | 7.45918 | 5335 ft | 216 kts | 266° |
| 2026-04-26 01:10 | 50.70893 | 7.43591 | 4928 ft | 213 kts | 266° |
| 2026-04-26 01:11 | 50.70684 | 7.41287 | 4493 ft | 211 kts | 268° |
| 2026-04-26 01:11 | 50.70761 | 7.39086 | 4305 ft | 193 kts | 289° |
| 2026-04-26 01:11 | 50.71303 | 7.37221 | 4124 ft | 186 kts | 308° |
| 2026-04-26 01:11 | 50.72191 | 7.35758 | 3898 ft | 185 kts | 319° |
| 2026-04-26 01:12 | 50.73149 | 7.34390 | 3655 ft | 186 kts | 319° |
| 2026-04-26 01:12 | 50.74107 | 7.33016 | 3414 ft | 187 kts | 319° |
| 2026-04-26 01:12 | 50.75056 | 7.31653 | 3183 ft | 181 kts | 319° |
| 2026-04-26 01:12 | 50.75977 | 7.30329 | 2912 ft | 176 kts | 319° |
| 2026-04-26 01:13 | 50.76864 | 7.29053 | 2671 ft | 172 kts | 319° |
| 2026-04-26 01:13 | 50.77740 | 7.27794 | 2443 ft | 168 kts | 320° |
| 2026-04-26 01:13 | 50.78596 | 7.26560 | 2215 ft | 163 kts | 320° |
| 2026-04-26 01:13 | 50.79408 | 7.25390 | 2007 ft | 152 kts | 320° |
| 2026-04-26 01:14 | 50.80147 | 7.24323 | 1795 ft | 138 kts | 321° |
| 2026-04-26 01:14 | 50.80842 | 7.23321 | 1616 ft | 133 kts | 320° |
| 2026-04-26 01:14 | 50.81523 | 7.22340 | 1430 ft | 132 kts | 320° |
| 2026-04-26 01:14 | 50.82203 | 7.21360 | 1240 ft | 132 kts | 319° |
| 2026-04-26 01:15 | 50.82883 | 7.20376 | 1053 ft | 133 kts | 319° |
| 2026-04-26 01:15 | 50.83567 | 7.19384 | 857 ft | 133 kts | 318° |
| 2026-04-26 01:15 | 50.84255 | 7.18392 | 688 ft | 134 kts | 318° |
| 2026-04-26 01:15 | 50.84946 | 7.17393 | 512 ft | 135 kts | 318° |
| 2026-04-26 01:16 | 50.85641 | 7.16390 | 328 ft | 135 kts | 318° |
| 2026-04-26 01:16 | 50.86273 | 7.15480 | 290 ft | 102 kts | 317° |
| 2026-04-26 01:16 | 50.86701 | 7.14859 | 270 ft | 74 kts | 317° |
| 2026-04-26 01:16 | 50.87057 | 7.14343 | 253 ft | 64 kts | 317° |
| 2026-04-26 01:17 | 50.87368 | 7.13894 | 241 ft | 56 kts | 317° |
| 2026-04-26 01:17 | 50.87636 | 7.13506 | 239 ft | 49 kts | 317° |
| 2026-04-26 01:17 | 50.87873 | 7.13164 | 239 ft | 44 kts | 317° |
| 2026-04-26 01:17 | 50.87993 | 7.12961 | 239 ft | 19 kts | 299° |
| 2026-04-26 01:18 | 50.87999 | 7.12771 | 237 ft | 18 kts | 253° |
| 2026-04-26 01:18 | 50.87939 | 7.12647 | 232 ft | 10 kts | 214° |
| 2026-04-26 01:18 | 50.87880 | 7.12608 | 232 ft | 9 kts | 199° |
| 2026-04-26 01:18 | 50.87852 | 7.12580 | 233 ft | 3 kts | 244° |
| 2026-04-26 01:19 | 50.87856 | 7.12547 | 232 ft | 3 kts | 287° |
| 2026-04-26 01:19 | 50.87861 | 7.12521 | 234 ft | 2 kts | 287° |
| 2026-04-26 01:19 | 50.87869 | 7.12482 | 232 ft | 3 kts | 288° |
| 2026-04-26 01:19 | 50.87874 | 7.12457 | 232 ft | 1 kts | 288° |
| 2026-04-26 01:20 | 50.87875 | 7.12455 | 232 ft | 0 kts | 288° |